Time;durP1;ratioP1;P1;durP2;ratioP2;P2;SDS_P1;SDS_P2;PMS_P1;PMS_P2;Temp;Humidity;BMP_temperature;BMP_pressure;BME280_temperature;BME280_humidity;BME280_pressure;Samples;Min_cycle;Max_cycle;Signal;HPM_P1;HPM_P2
2022/01/24 00:00:37;;;;;;;10.63;8.60;;;5.30;99.90;;;;;;5002104;28;20235;-80
2022/01/24 00:03:07;;;;;;;11.47;8.50;;;5.20;99.90;;;;;;5004746;28;20330;-80
2022/01/24 00:05:34;;;;;;;10.40;8.40;;;5.30;99.90;;;;;;5009583;28;20707;-80
2022/01/24 00:08:01;;;;;;;14.00;8.13;;;5.30;99.90;;;;;;5006156;28;20226;-80
2022/01/24 00:10:29;;;;;;;11.83;8.20;;;5.30;99.90;;;;;;5001816;28;22342;-80
2022/01/24 00:15:59;;;;;;;9.27;7.43;;;5.30;99.90;;;;;;4994349;28;20226;-80
2022/01/24 00:18:30;;;;;;;9.63;7.30;;;5.30;99.90;;;;;;5004488;28;20234;-80
2022/01/24 00:26:45;;;;;;;8.77;7.10;;;5.30;99.90;;;;;;5003190;28;21206;-80
2022/01/24 00:29:14;;;;;;;10.37;6.80;;;5.30;99.90;;;;;;5003585;28;20277;-80
2022/01/24 00:31:41;;;;;;;7.97;6.30;;;5.30;99.90;;;;;;5018851;28;20619;-80
2022/01/24 00:34:07;;;;;;;10.83;7.30;;;5.30;99.90;;;;;;5002504;28;20240;-79
2022/01/24 00:36:35;;;;;;;9.40;6.33;;;5.30;99.90;;;;;;5005465;28;20896;-82
2022/01/24 00:39:02;;;;;;;8.00;6.30;;;5.30;99.90;;;;;;5000414;28;20237;-80
2022/01/24 00:41:31;;;;;;;8.83;6.27;;;5.30;99.90;;;;;;4998616;28;20743;-82
2022/01/24 00:44:21;;;;;;;8.33;6.50;;;5.30;99.90;;;;;;5021000;28;20234;-80
2022/01/24 00:46:54;;;;;;;8.97;6.83;;;5.40;99.90;;;;;;5003896;28;20765;-81
2022/01/24 00:49:42;;;;;;;10.97;6.93;;;5.30;99.90;;;;;;4996973;28;20235;-80
2022/01/24 00:54:54;;;;;;;9.87;6.63;;;5.30;99.90;;;;;;5003958;28;20237;-82
2022/01/24 00:57:22;;;;;;;9.37;7.07;;;5.30;99.90;;;;;;5004910;28;20224;-82
2022/01/24 00:59:49;;;;;;;8.33;6.60;;;5.30;99.90;;;;;;5002023;28;20235;-81
2022/01/24 01:02:19;;;;;;;10.20;6.97;;;5.30;99.90;;;;;;5000129;28;20571;-81
2022/01/24 01:05:01;;;;;;;10.97;7.00;;;5.30;99.90;;;;;;5014542;28;20897;-81
2022/01/24 01:07:35;;;;;;;8.47;6.80;;;5.30;99.90;;;;;;5006144;28;20243;-81
2022/01/24 01:18:18;;;;;;;9.67;7.07;;;5.30;99.90;;;;;;5008050;28;20758;-81
2022/01/24 01:21:08;;;;;;;9.63;7.27;;;5.30;99.90;;;;;;4998624;28;20227;-81
2022/01/24 01:23:38;;;;;;;10.33;7.73;;;5.20;99.90;;;;;;5003576;28;20229;-81
2022/01/24 01:26:09;;;;;;;9.27;7.40;;;5.30;99.90;;;;;;4996185;28;20685;-81
2022/01/24 01:28:40;;;;;;;11.40;8.03;;;5.30;99.90;;;;;;5001092;28;21018;-81
2022/01/24 01:31:13;;;;;;;10.70;7.90;;;5.20;99.90;;;;;;5001782;28;20348;-80
2022/01/24 01:33:52;;;;;;;10.30;7.57;;;5.20;99.90;;;;;;5003470;28;20237;-81
2022/01/24 01:36:27;;;;;;;9.90;7.77;;;5.30;99.90;;;;;;4997658;28;20250;-80
2022/01/24 01:39:28;;;;;;;11.30;7.63;;;5.30;99.90;;;;;;4996605;28;20282;-82
2022/01/24 01:53:25;;;;;;;10.93;7.47;;;5.20;99.90;;;;;;4941836;28;20741;-81
2022/01/24 01:55:52;;;;;;;10.10;7.53;;;5.20;99.90;;;;;;4996287;28;20244;-82
2022/01/24 01:58:21;;;;;;;9.50;7.47;;;5.20;99.90;;;;;;5002878;28;20782;-80
2022/01/24 02:00:51;;;;;;;11.13;7.87;;;5.20;99.90;;;;;;4998013;28;20233;-82
2022/01/24 02:03:18;;;;;;;7.70;6.80;;;5.10;99.90;;;;;;4998390;28;20908;-81
2022/01/24 02:05:46;;;;;;;9.77;7.60;;;5.10;99.90;;;;;;5003436;28;20840;-81
2022/01/24 02:08:13;;;;;;;10.20;7.50;;;5.20;99.90;;;;;;5001340;28;20222;-81
2022/01/24 02:10:42;;;;;;;9.43;6.90;;;5.20;99.90;;;;;;4998877;28;20230;-81
2022/01/24 02:13:10;;;;;;;9.90;7.87;;;5.20;99.90;;;;;;5000283;28;20233;-82
2022/01/24 02:15:45;;;;;;;11.07;7.87;;;5.20;99.90;;;;;;5002958;28;20314;-80
2022/01/24 02:18:25;;;;;;;10.47;7.43;;;5.20;99.90;;;;;;5000624;28;20272;-80
2022/01/24 02:21:13;;;;;;;9.53;7.40;;;5.20;99.90;;;;;;5005534;28;20322;-80
2022/01/24 02:23:45;;;;;;;10.07;7.47;;;5.10;99.90;;;;;;5004317;28;20623;-80
2022/01/24 02:26:16;;;;;;;9.77;7.63;;;5.10;99.90;;;;;;5001412;28;20230;-80
2022/01/24 02:28:58;;;;;;;13.00;8.80;;;5.10;99.90;;;;;;5006478;28;20862;-80
2022/01/24 02:31:39;;;;;;;10.87;8.17;;;5.10;99.90;;;;;;5008062;28;20238;-80
2022/01/24 02:34:17;;;;;;;11.23;7.83;;;5.10;99.90;;;;;;5011247;28;20229;-80
2022/01/24 02:36:44;;;;;;;10.47;8.23;;;5.10;99.90;;;;;;4996093;28;20742;-80
2022/01/24 02:39:33;;;;;;;10.47;8.37;;;5.10;99.90;;;;;;5008116;28;20250;-81
2022/01/24 02:50:16;;;;;;;12.43;9.70;;;5.00;99.90;;;;;;5005659;28;20261;-81
2022/01/24 02:52:43;;;;;;;11.67;8.93;;;5.10;99.90;;;;;;5004110;28;20235;-80
2022/01/24 02:55:11;;;;;;;14.53;10.07;;;5.00;99.90;;;;;;4996356;28;20756;-81
2022/01/24 02:57:38;;;;;;;15.13;10.07;;;5.00;99.90;;;;;;5000596;28;20241;-80
2022/01/24 03:00:06;;;;;;;12.10;9.47;;;5.00;99.90;;;;;;4998654;28;20222;-81
2022/01/24 03:02:32;;;;;;;12.80;9.57;;;5.00;99.90;;;;;;5001278;28;20239;-81
2022/01/24 03:05:00;;;;;;;16.60;10.97;;;5.00;99.90;;;;;;5004526;28;20332;-81
2022/01/24 03:07:26;;;;;;;13.47;10.17;;;5.00;99.90;;;;;;5010516;28;20301;-80
2022/01/24 03:09:55;;;;;;;12.50;9.47;;;5.00;99.90;;;;;;5005713;28;20246;-80
2022/01/24 03:12:39;;;;;;;11.17;9.40;;;5.00;99.90;;;;;;5005359;28;20321;-80
2022/01/24 03:15:08;;;;;;;14.90;9.33;;;5.00;99.90;;;;;;4996903;28;20320;-80
2022/01/24 03:17:35;;;;;;;11.87;9.67;;;5.00;99.90;;;;;;5002868;28;20661;-80
2022/01/24 03:20:02;;;;;;;12.37;9.40;;;5.10;99.90;;;;;;5006923;28;20325;-80
2022/01/24 03:22:28;;;;;;;12.97;8.97;;;5.10;99.90;;;;;;5004557;28;20230;-81
2022/01/24 03:24:55;;;;;;;11.30;8.50;;;5.00;99.90;;;;;;5006899;28;20263;-81
2022/01/24 03:27:24;;;;;;;12.17;9.03;;;5.00;99.90;;;;;;5006089;28;20807;-81
2022/01/24 03:29:51;;;;;;;11.57;8.87;;;5.00;99.90;;;;;;5007020;28;20731;-80
2022/01/24 03:32:17;;;;;;;11.27;8.80;;;5.00;99.90;;;;;;4999766;28;20222;-81
2022/01/24 03:34:44;;;;;;;12.07;9.10;;;5.00;99.90;;;;;;5004911;28;20278;-80
2022/01/24 03:37:11;;;;;;;10.50;8.07;;;4.90;99.90;;;;;;4994776;28;20681;-81
2022/01/24 03:39:37;;;;;;;10.80;8.20;;;5.00;99.90;;;;;;5002058;28;20241;-81
2022/01/24 03:42:05;;;;;;;9.77;8.47;;;5.00;99.90;;;;;;5003098;28;20248;-80
2022/01/24 03:44:33;;;;;;;9.40;7.70;;;4.90;99.90;;;;;;5002747;28;20238;-80
2022/01/24 03:47:19;;;;;;;10.43;8.13;;;4.90;99.90;;;;;;5001844;28;20226;-80
2022/01/24 03:49:46;;;;;;;11.33;7.93;;;4.90;99.90;;;;;;5002681;28;20233;-80
2022/01/24 03:52:13;;;;;;;9.07;7.57;;;4.90;99.90;;;;;;5004788;28;20304;-81
2022/01/24 03:54:43;;;;;;;10.40;8.07;;;4.90;99.90;;;;;;5000781;28;20442;-80
2022/01/24 03:57:11;;;;;;;10.50;7.73;;;4.90;99.90;;;;;;4998982;28;20902;-80
2022/01/24 03:59:39;;;;;;;9.77;7.40;;;4.90;99.90;;;;;;5006326;28;20728;-80
2022/01/24 04:02:06;;;;;;;8.63;7.00;;;4.90;99.90;;;;;;5003239;28;20229;-80
2022/01/24 04:04:33;;;;;;;9.50;7.10;;;4.90;99.90;;;;;;5001550;28;20245;-81
2022/01/24 04:07:00;;;;;;;9.53;7.53;;;4.90;99.90;;;;;;4994262;28;20239;-81
2022/01/24 04:09:26;;;;;;;8.20;6.53;;;4.90;99.90;;;;;;5005268;28;20312;-81
2022/01/24 04:11:56;;;;;;;7.80;5.67;;;4.90;99.90;;;;;;5002058;28;20238;-80
2022/01/24 04:14:30;;;;;;;7.27;5.53;;;4.90;99.90;;;;;;5004803;28;20266;-80
2022/01/24 04:17:23;;;;;;;6.13;5.33;;;4.90;99.90;;;;;;5002666;28;20599;-80
2022/01/24 04:22:46;;;;;;;7.23;5.83;;;4.80;99.90;;;;;;4999826;28;20235;-80
2022/01/24 04:25:15;;;;;;;7.70;5.80;;;4.80;99.90;;;;;;5004241;28;21790;-79
2022/01/24 04:27:42;;;;;;;7.47;5.73;;;4.80;99.90;;;;;;5005845;28;20288;-79
2022/01/24 04:30:10;;;;;;;7.77;6.33;;;4.80;99.90;;;;;;5005835;28;20226;-80
2022/01/24 04:32:38;;;;;;;6.30;5.70;;;4.80;99.90;;;;;;5002304;28;20234;-81
2022/01/24 04:35:06;;;;;;;6.93;5.63;;;4.70;99.90;;;;;;5001003;28;20771;-79
2022/01/24 04:37:32;;;;;;;8.27;6.03;;;4.70;99.90;;;;;;4996189;28;20245;-80
2022/01/24 04:39:59;;;;;;;8.63;6.40;;;4.70;99.90;;;;;;5000433;28;20237;-80
2022/01/24 04:42:35;;;;;;;7.80;6.27;;;4.70;99.90;;;;;;5004987;28;20300;-80
2022/01/24 04:45:24;;;;;;;7.70;6.57;;;4.60;99.90;;;;;;5000129;28;20250;-80
2022/01/24 04:50:46;;;;;;;8.50;6.87;;;4.60;99.90;;;;;;5000205;28;20337;-79
2022/01/24 04:53:29;;;;;;;8.23;6.67;;;4.60;99.90;;;;;;5001306;28;20225;-79
2022/01/24 04:55:56;;;;;;;10.47;7.10;;;4.60;99.90;;;;;;5004277;28;20236;-81
2022/01/24 04:58:23;;;;;;;8.27;7.07;;;4.50;99.90;;;;;;4995708;28;20317;-80
2022/01/24 05:00:50;;;;;;;8.37;6.57;;;4.50;99.90;;;;;;5003983;28;20236;-80
2022/01/24 05:03:18;;;;;;;9.20;6.63;;;4.50;99.90;;;;;;5000094;28;20226;-80
2022/01/24 05:05:45;;;;;;;8.10;6.63;;;4.50;99.90;;;;;;4997444;28;20269;-80
2022/01/24 05:08:14;;;;;;;9.33;7.00;;;4.50;99.90;;;;;;5002370;28;20233;-80
2022/01/24 05:10:53;;;;;;;9.47;7.23;;;4.50;99.90;;;;;;5003753;28;20226;-81
2022/01/24 05:23:24;;;;;;;10.17;7.50;;;4.40;99.90;;;;;;4999805;28;20241;-81
2022/01/24 05:24:26;;;;;;;11.73;8.03;;;4.40;99.90;;;;;;5000557;28;20233;-85
2022/01/24 05:26:53;;;;;;;11.80;8.27;;;4.40;99.90;;;;;;5004904;28;20234;-82
2022/01/24 05:29:19;;;;;;;26.37;9.13;;;4.40;99.90;;;;;;4991642;28;20321;-84
2022/01/24 05:31:46;;;;;;;13.23;9.07;;;4.40;99.90;;;;;;5004922;28;20784;-84
2022/01/24 05:34:14;;;;;;;15.37;9.57;;;4.40;99.90;;;;;;5001181;28;20235;-81
2022/01/24 05:36:41;;;;;;;25.17;10.23;;;4.40;99.90;;;;;;5010440;28;20242;-80
2022/01/24 05:39:08;;;;;;;14.73;9.40;;;4.40;99.90;;;;;;4998935;28;20259;-80
2022/01/24 05:41:37;;;;;;;17.20;8.63;;;4.50;99.90;;;;;;5002903;28;20239;-81
2022/01/24 05:44:04;;;;;;;15.40;9.63;;;4.40;99.90;;;;;;5000415;28;20226;-80
2022/01/24 05:46:31;;;;;;;12.33;8.83;;;4.50;99.90;;;;;;5012197;28;20294;-80
2022/01/24 05:48:57;;;;;;;16.33;9.07;;;4.50;99.90;;;;;;5014057;28;20933;-80
2022/01/24 05:51:26;;;;;;;11.00;8.97;;;4.50;99.90;;;;;;5000887;28;20239;-81
2022/01/24 05:53:53;;;;;;;15.67;9.50;;;4.50;99.90;;;;;;4998953;28;20922;-80
2022/01/24 05:56:19;;;;;;;13.43;9.13;;;4.50;99.90;;;;;;5001482;28;20226;-80
2022/01/24 05:58:46;;;;;;;13.47;9.30;;;4.40;99.90;;;;;;4998213;28;20238;-81
2022/01/24 06:01:13;;;;;;;12.70;9.70;;;4.40;99.90;;;;;;4998514;28;20247;-81
2022/01/24 06:03:40;;;;;;;22.80;10.60;;;4.40;99.90;;;;;;4997641;28;20230;-81
2022/01/24 06:06:08;;;;;;;15.73;10.60;;;4.50;99.90;;;;;;5005320;28;20222;-81
2022/01/24 06:08:36;;;;;;;17.47;11.33;;;4.40;99.90;;;;;;4998742;28;20234;-81
2022/01/24 06:11:03;;;;;;;15.93;11.27;;;4.40;99.90;;;;;;5004419;28;20250;-81
2022/01/24 06:13:31;;;;;;;13.07;10.17;;;4.50;99.90;;;;;;5003857;28;20329;-81
2022/01/24 06:15:58;;;;;;;14.20;10.27;;;4.50;99.90;;;;;;5000704;28;20229;-83
2022/01/24 06:18:25;;;;;;;15.30;10.83;;;4.50;99.90;;;;;;4998259;28;20611;-80
2022/01/24 06:20:53;;;;;;;14.53;10.27;;;4.50;99.90;;;;;;5001670;28;20717;-80
2022/01/24 06:23:20;;;;;;;15.53;10.30;;;4.40;99.90;;;;;;5003635;28;20225;-81
2022/01/24 06:25:49;;;;;;;14.57;10.73;;;4.40;99.90;;;;;;5000602;28;20229;-81
2022/01/24 06:28:16;;;;;;;13.70;9.80;;;4.40;99.90;;;;;;5001912;28;20233;-81
2022/01/24 06:30:44;;;;;;;14.00;10.37;;;4.40;99.90;;;;;;4998349;28;20242;-81
2022/01/24 06:33:11;;;;;;;14.30;10.60;;;4.40;99.90;;;;;;5002439;28;20221;-81
2022/01/24 06:35:38;;;;;;;13.77;9.77;;;4.40;99.90;;;;;;5004091;28;20295;-80
2022/01/24 06:38:04;;;;;;;14.53;9.80;;;4.40;99.90;;;;;;5017219;28;20222;-81
2022/01/24 06:40:32;;;;;;;16.30;10.73;;;4.40;99.90;;;;;;5001951;28;20250;-80
2022/01/24 06:43:00;;;;;;;14.73;10.57;;;4.40;99.90;;;;;;5004822;28;20225;-80
2022/01/24 06:45:27;;;;;;;17.40;11.70;;;4.40;99.90;;;;;;5005866;28;20237;-81
2022/01/24 06:47:54;;;;;;;17.40;11.53;;;4.40;99.90;;;;;;5005905;28;20225;-80
2022/01/24 06:50:21;;;;;;;16.97;12.47;;;4.30;99.90;;;;;;5001599;28;20253;-80
2022/01/24 06:52:48;;;;;;;19.87;13.33;;;4.40;99.90;;;;;;5009076;28;20241;-80
2022/01/24 06:55:14;;;;;;;19.47;13.77;;;4.30;99.90;;;;;;5005487;28;20218;-81
2022/01/24 06:57:41;;;;;;;19.20;12.40;;;4.40;99.90;;;;;;5002887;28;20244;-81
2022/01/24 07:00:10;;;;;;;18.73;12.83;;;4.30;99.90;;;;;;4999287;28;20226;-81
2022/01/24 07:02:38;;;;;;;18.73;13.10;;;4.30;99.90;;;;;;5016604;28;20236;-81
2022/01/24 07:05:05;;;;;;;17.87;11.80;;;4.30;99.90;;;;;;5005192;28;20229;-81
2022/01/24 07:07:33;;;;;;;16.90;11.80;;;4.30;99.90;;;;;;5002545;28;20566;-81
2022/01/24 07:10:01;;;;;;;16.20;10.87;;;4.30;99.90;;;;;;5006497;28;20331;-80
2022/01/24 07:12:28;;;;;;;15.70;11.83;;;4.30;99.90;;;;;;5006556;28;20842;-80
2022/01/24 07:14:56;;;;;;;14.23;10.33;;;4.30;99.90;;;;;;5007958;28;20234;-80
2022/01/24 07:17:45;;;;;;;17.23;11.93;;;4.30;99.90;;;;;;5006343;28;20324;-81
2022/01/24 07:20:12;;;;;;;16.60;11.73;;;4.40;99.90;;;;;;5002301;28;20737;-80
2022/01/24 07:22:38;;;;;;;17.10;12.30;;;4.30;99.90;;;;;;5010574;28;20233;-80
2022/01/24 07:25:06;;;;;;;16.90;12.20;;;4.30;99.90;;;;;;5003896;28;20227;-80
2022/01/24 07:27:32;;;;;;;19.20;12.17;;;4.40;99.90;;;;;;4999437;28;20240;-81
2022/01/24 07:30:01;;;;;;;19.87;13.03;;;4.40;99.90;;;;;;5006892;28;20753;-81
2022/01/24 07:32:29;;;;;;;18.53;12.47;;;4.40;99.90;;;;;;5000304;28;20234;-80
2022/01/24 07:34:56;;;;;;;19.20;13.97;;;4.40;99.90;;;;;;5007974;28;20749;-80
2022/01/24 07:37:24;;;;;;;19.07;13.03;;;4.40;99.90;;;;;;5005078;28;20222;-80
2022/01/24 07:39:51;;;;;;;19.13;13.17;;;4.50;99.90;;;;;;5002226;28;20585;-81
2022/01/24 07:42:28;;;;;;;18.27;12.83;;;4.40;99.90;;;;;;5002086;28;20233;-80
2022/01/24 07:44:57;;;;;;;18.80;12.93;;;4.50;99.90;;;;;;5001474;28;20221;-81
2022/01/24 07:47:23;;;;;;;20.17;14.10;;;4.50;99.90;;;;;;5009394;28;20224;-81
2022/01/24 07:49:51;;;;;;;19.20;13.83;;;4.50;99.90;;;;;;5009762;28;20229;-81
2022/01/24 07:52:18;;;;;;;18.13;12.70;;;4.50;99.90;;;;;;5003921;28;20320;-81
2022/01/24 07:54:45;;;;;;;20.00;13.57;;;4.50;99.90;;;;;;5006482;28;20725;-81
2022/01/24 07:57:11;;;;;;;18.97;13.27;;;4.50;99.90;;;;;;5000556;28;20564;-80
2022/01/24 07:59:38;;;;;;;18.80;13.10;;;4.60;99.90;;;;;;5001687;28;20603;-81
2022/01/24 08:02:05;;;;;;;19.43;13.47;;;4.60;99.90;;;;;;5005649;28;20227;-81
2022/01/24 08:04:33;;;;;;;20.57;13.73;;;4.50;99.90;;;;;;5000504;28;20295;-80
2022/01/24 08:07:01;;;;;;;19.33;13.07;;;4.50;99.90;;;;;;5001998;28;20800;-81
2022/01/24 08:09:27;;;;;;;20.70;13.90;;;4.50;99.90;;;;;;4996632;28;20243;-82
2022/01/24 08:11:54;;;;;;;19.77;14.40;;;4.50;99.90;;;;;;5004594;28;20313;-83
2022/01/24 08:14:21;;;;;;;19.10;13.27;;;4.50;99.90;;;;;;5002109;28;20652;-80
2022/01/24 08:16:48;;;;;;;21.13;13.80;;;4.60;99.90;;;;;;5002811;28;20615;-83
2022/01/24 08:19:15;;;;;;;21.10;15.03;;;4.50;99.90;;;;;;5003299;28;20233;-82
2022/01/24 08:21:43;;;;;;;23.27;15.70;;;4.50;99.90;;;;;;5002157;28;20255;-84
2022/01/24 08:24:11;;;;;;;23.93;15.73;;;4.60;99.90;;;;;;5005432;28;20313;-85
2022/01/24 08:26:38;;;;;;;27.47;17.40;;;4.60;99.90;;;;;;5002476;28;20730;-82
2022/01/24 08:29:06;;;;;;;30.03;18.80;;;4.60;99.90;;;;;;5004399;28;20965;-82
2022/01/24 08:31:33;;;;;;;30.53;19.17;;;4.60;99.90;;;;;;5000446;28;20260;-82
2022/01/24 08:34:00;;;;;;;32.67;19.67;;;4.60;99.90;;;;;;5002620;28;20661;-80
2022/01/24 08:36:28;;;;;;;30.03;18.97;;;4.60;99.90;;;;;;5002167;28;20308;-82
2022/01/24 08:38:57;;;;;;;32.70;20.67;;;4.60;99.90;;;;;;5002516;28;20518;-82
2022/01/24 08:41:29;;;;;;;32.13;19.50;;;4.60;99.90;;;;;;4999999;28;20734;-81
2022/01/24 08:44:10;;;;;;;34.37;20.97;;;4.60;99.90;;;;;;4999161;28;20739;-80
2022/01/24 08:46:37;;;;;;;34.23;21.60;;;4.60;99.90;;;;;;5003418;28;20238;-80
2022/01/24 08:49:04;;;;;;;35.30;22.90;;;4.60;99.90;;;;;;5002952;28;20262;-82
2022/01/24 08:51:30;;;;;;;37.87;23.83;;;4.60;99.90;;;;;;4999506;28;20574;-80
2022/01/24 08:53:57;;;;;;;34.23;22.50;;;4.60;99.90;;;;;;5000699;28;20320;-81
2022/01/24 08:56:25;;;;;;;35.83;23.70;;;4.60;99.90;;;;;;5002849;28;20341;-81
2022/01/24 08:58:52;;;;;;;34.13;22.17;;;4.60;99.90;;;;;;5000764;28;20233;-81
2022/01/24 09:01:18;;;;;;;33.13;22.10;;;4.60;99.90;;;;;;5004732;28;20340;-80
2022/01/24 09:03:45;;;;;;;37.00;23.53;;;4.60;99.90;;;;;;5000055;28;20222;-82
2022/01/24 09:06:13;;;;;;;38.07;23.70;;;4.50;99.90;;;;;;4998468;28;20742;-81
2022/01/24 09:08:40;;;;;;;37.57;23.73;;;4.50;99.90;;;;;;5003780;28;20288;-81
2022/01/24 09:11:07;;;;;;;40.13;24.07;;;4.60;99.90;;;;;;5002922;28;20225;-80
2022/01/24 09:13:36;;;;;;;38.10;23.77;;;4.60;99.90;;;;;;5005127;28;20382;-80
2022/01/24 09:16:03;;;;;;;37.10;23.17;;;4.50;99.90;;;;;;5003557;28;20328;-83
2022/01/24 09:18:30;;;;;;;36.90;24.60;;;4.50;99.90;;;;;;4999203;28;20646;-80
2022/01/24 09:20:57;;;;;;;35.10;24.23;;;4.50;99.90;;;;;;5008900;28;20233;-81
2022/01/24 09:23:24;;;;;;;37.73;24.63;;;4.60;99.90;;;;;;5005833;28;20855;-81
2022/01/24 09:25:52;;;;;;;39.13;25.13;;;4.50;99.90;;;;;;5003924;28;20966;-81
2022/01/24 09:28:19;;;;;;;40.37;25.77;;;4.50;99.90;;;;;;5004598;28;20242;-80
2022/01/24 09:30:47;;;;;;;40.90;25.83;;;4.50;99.90;;;;;;5006514;28;20648;-81
2022/01/24 09:33:14;;;;;;;38.40;25.57;;;4.50;99.90;;;;;;5002608;28;20276;-80
2022/01/24 09:35:42;;;;;;;41.43;26.30;;;4.50;99.90;;;;;;5006502;28;20258;-80
2022/01/24 09:38:09;;;;;;;44.10;26.87;;;4.60;99.90;;;;;;5003453;28;20234;-80
2022/01/24 09:40:36;;;;;;;41.37;26.83;;;4.50;99.90;;;;;;5004701;28;20229;-81
2022/01/24 09:43:03;;;;;;;41.60;25.43;;;4.60;99.90;;;;;;5006547;28;20229;-81
2022/01/24 09:45:31;;;;;;;40.50;26.53;;;4.60;99.90;;;;;;5000289;28;20260;-84
2022/01/24 09:48:00;;;;;;;42.17;26.70;;;4.60;99.90;;;;;;5002910;28;20234;-81
2022/01/24 09:50:26;;;;;;;42.67;26.87;;;4.60;99.90;;;;;;4998256;28;20669;-81
2022/01/24 09:52:53;;;;;;;43.00;27.47;;;4.60;99.90;;;;;;5003980;28;20240;-80
2022/01/24 09:55:23;;;;;;;43.17;26.93;;;4.70;99.90;;;;;;4999697;28;20230;-82
2022/01/24 09:57:50;;;;;;;43.37;27.77;;;4.70;99.90;;;;;;5003110;28;20227;-81
2022/01/24 10:00:20;;;;;;;42.70;26.90;;;4.70;99.90;;;;;;5004939;28;20229;-86
2022/01/24 10:02:49;;;;;;;45.37;28.00;;;4.70;99.90;;;;;;5005769;28;20276;-81
2022/01/24 10:05:20;;;;;;;43.13;26.77;;;4.70;99.90;;;;;;5003689;28;20240;-81
2022/01/24 10:07:52;;;;;;;42.57;26.67;;;4.70;99.90;;;;;;5003247;28;21020;-78
2022/01/24 10:10:39;;;;;;;41.23;26.47;;;4.70;99.90;;;;;;4997205;28;20657;-82
2022/01/24 10:16:29;;;;;;;40.10;24.23;;;4.70;99.90;;;;;;5004753;28;20228;-83
2022/01/24 10:19:06;;;;;;;39.20;25.20;;;4.80;99.90;;;;;;4996221;28;20229;-83
2022/01/24 10:21:40;;;;;;;40.80;24.27;;;4.80;99.90;;;;;;4996146;28;20602;-82
2022/01/24 10:24:07;;;;;;;41.20;25.50;;;4.80;99.90;;;;;;5006981;28;20229;-82
2022/01/24 10:26:34;;;;;;;41.10;25.33;;;4.80;99.90;;;;;;5010213;28;20225;-83
2022/01/24 10:29:01;;;;;;;37.33;22.80;;;4.80;99.90;;;;;;5007386;28;20236;-84
2022/01/24 10:31:29;;;;;;;38.57;22.87;;;4.90;99.90;;;;;;5012929;28;20966;-83
2022/01/24 10:34:04;;;;;;;42.07;24.97;;;4.90;99.90;;;;;;5005371;28;20234;-82
2022/01/24 10:36:39;;;;;;;36.77;22.00;;;4.90;99.90;;;;;;5005379;28;20745;-84
2022/01/24 10:39:15;;;;;;;35.90;21.97;;;4.90;99.90;;;;;;5020384;28;20236;-84
2022/01/24 10:42:11;;;;;;;34.80;21.27;;;4.90;99.90;;;;;;5004427;28;20232;-86
2022/01/24 10:44:38;;;;;;;39.50;22.33;;;4.90;99.90;;;;;;4998575;28;20229;-83
2022/01/24 10:47:17;;;;;;;36.47;21.47;;;4.90;99.90;;;;;;5007262;28;20230;-82
2022/01/24 10:49:45;;;;;;;33.40;20.73;;;4.90;99.90;;;;;;5005560;28;20389;-82
2022/01/24 10:52:17;;;;;;;32.47;20.27;;;4.90;99.90;;;;;;5007434;28;20221;-81
2022/01/24 10:54:44;;;;;;;35.07;20.23;;;4.90;99.90;;;;;;5005839;28;20240;-82
2022/01/24 10:57:21;;;;;;;31.70;20.13;;;4.90;99.90;;;;;;5013661;28;20224;-83
2022/01/24 10:59:48;;;;;;;32.77;18.80;;;4.90;99.90;;;;;;5000416;28;20710;-81
2022/01/24 11:02:16;;;;;;;34.93;19.73;;;4.90;99.90;;;;;;5008847;28;20240;-82
2022/01/24 11:04:44;;;;;;;31.13;18.93;;;4.90;99.90;;;;;;5003805;28;20722;-82
2022/01/24 11:07:12;;;;;;;29.23;18.53;;;4.90;99.90;;;;;;5008600;28;20305;-82
2022/01/24 11:09:41;;;;;;;31.60;18.97;;;4.80;99.90;;;;;;5008904;28;20233;-82
2022/01/24 11:12:11;;;;;;;32.30;19.43;;;4.90;99.90;;;;;;4999720;28;20229;-82
2022/01/24 11:14:39;;;;;;;33.37;19.03;;;4.80;99.90;;;;;;5002310;28;20230;-82
2022/01/24 11:17:09;;;;;;;29.13;17.43;;;4.80;99.90;;;;;;5004500;28;20250;-82
2022/01/24 11:19:41;;;;;;;32.40;18.73;;;4.80;99.90;;;;;;5003247;28;20875;-82
2022/01/24 11:22:18;;;;;;;32.73;17.97;;;4.90;99.90;;;;;;5005281;28;20230;-81
2022/01/24 11:24:53;;;;;;;29.90;18.27;;;4.80;99.90;;;;;;5004860;28;20263;-82
2022/01/24 11:27:21;;;;;;;32.17;19.27;;;4.80;99.90;;;;;;5006487;28;20232;-82
2022/01/24 11:29:50;;;;;;;27.67;17.43;;;4.80;99.90;;;;;;5016381;28;20233;-82
2022/01/24 11:32:23;;;;;;;28.73;17.93;;;4.80;99.90;;;;;;5011113;28;20779;-82
2022/01/24 11:34:52;;;;;;;33.80;18.73;;;4.90;99.90;;;;;;5011392;28;20358;-82
2022/01/24 11:37:34;;;;;;;31.47;19.10;;;4.80;99.90;;;;;;5003075;28;20226;-81
2022/01/24 11:40:07;;;;;;;29.93;17.80;;;4.80;99.90;;;;;;5008008;28;20309;-83
2022/01/24 11:42:36;;;;;;;32.67;18.30;;;4.80;99.90;;;;;;5007860;28;20233;-82
2022/01/24 11:45:10;;;;;;;31.17;18.37;;;4.80;99.90;;;;;;5002762;28;20352;-82
2022/01/24 11:47:38;;;;;;;28.57;18.13;;;4.80;99.90;;;;;;5000460;28;20241;-84
2022/01/24 11:50:31;;;;;;;32.13;19.37;;;4.80;99.90;;;;;;5004776;28;20218;-81
2022/01/24 11:52:59;;;;;;;33.33;18.50;;;4.80;99.90;;;;;;5005220;28;20252;-84
2022/01/24 11:55:34;;;;;;;34.83;18.37;;;4.80;99.90;;;;;;4999183;28;20238;-81
2022/01/24 11:58:04;;;;;;;33.67;19.57;;;4.80;99.90;;;;;;5018667;28;21459;-81
2022/01/24 12:00:38;;;;;;;34.80;20.37;;;4.80;99.90;;;;;;5021168;28;20651;-84
2022/01/24 12:03:16;;;;;;;34.70;20.53;;;4.80;99.90;;;;;;5002302;28;20252;-83
2022/01/24 12:05:45;;;;;;;36.87;21.57;;;4.80;99.90;;;;;;5014818;28;20237;-83
2022/01/24 12:08:13;;;;;;;36.80;21.20;;;4.80;99.90;;;;;;5000064;28;20219;-82
2022/01/24 12:10:47;;;;;;;34.13;20.40;;;4.80;99.90;;;;;;5007960;28;20692;-82
2022/01/24 12:13:19;;;;;;;32.23;20.33;;;4.80;99.90;;;;;;5007822;28;20782;-83
2022/01/24 12:16:07;;;;;;;38.87;22.20;;;4.80;99.90;;;;;;5007606;28;20218;-82
2022/01/24 12:18:53;;;;;;;33.80;20.10;;;4.80;99.90;;;;;;5006548;28;20854;-83
2022/01/24 12:21:25;;;;;;;36.70;21.93;;;4.80;99.90;;;;;;5006341;28;20234;-82
2022/01/24 12:23:54;;;;;;;41.20;22.17;;;4.80;99.90;;;;;;5003698;28;20300;-82
2022/01/24 12:26:25;;;;;;;42.77;24.17;;;4.90;99.90;;;;;;5005335;28;20222;-82
2022/01/24 12:28:58;;;;;;;45.80;25.37;;;4.90;99.90;;;;;;5002573;28;20248;-82
2022/01/24 12:31:29;;;;;;;48.80;26.87;;;4.90;99.90;;;;;;5001674;28;20229;-82
2022/01/24 12:34:18;;;;;;;43.97;26.27;;;4.90;99.90;;;;;;5003007;28;20229;-81
2022/01/24 12:37:00;;;;;;;46.27;26.83;;;4.90;99.90;;;;;;4999405;28;20229;-82
2022/01/24 12:39:32;;;;;;;47.93;26.57;;;4.90;99.90;;;;;;5002916;28;20324;-83
2022/01/24 12:42:04;;;;;;;47.63;27.03;;;4.80;99.90;;;;;;5003994;28;20225;-82
2022/01/24 12:47:19;;;;;;;44.50;28.37;;;4.80;99.90;;;;;;5005092;28;20711;-82
2022/01/24 12:49:50;;;;;;;48.03;28.03;;;4.80;99.90;;;;;;5010046;28;20231;-82
2022/01/24 12:52:19;;;;;;;48.73;28.60;;;4.80;99.90;;;;;;5007896;28;20756;-82
2022/01/24 12:54:48;;;;;;;47.20;28.37;;;4.80;99.90;;;;;;5000403;28;20238;-82
2022/01/24 12:57:18;;;;;;;51.57;29.67;;;4.80;99.90;;;;;;5007592;28;20220;-82
2022/01/24 12:59:56;;;;;;;50.63;30.77;;;4.80;99.90;;;;;;5003851;28;20230;-82
2022/01/24 13:02:26;;;;;;;52.20;31.03;;;4.80;99.90;;;;;;5004663;28;22603;-82
2022/01/24 13:04:59;;;;;;;51.43;30.43;;;4.80;99.90;;;;;;5007193;28;20957;-82
2022/01/24 13:07:26;;;;;;;54.13;30.27;;;4.80;99.90;;;;;;5002791;28;20242;-82
2022/01/24 13:10:04;;;;;;;49.90;29.97;;;4.80;99.90;;;;;;5008819;28;20260;-82
2022/01/24 13:12:32;;;;;;;51.00;29.10;;;4.80;99.90;;;;;;5007042;28;20239;-82
2022/01/24 13:15:03;;;;;;;51.03;30.67;;;4.80;99.90;;;;;;5008856;28;21230;-82
2022/01/24 13:23:08;;;;;;;53.10;30.07;;;4.80;99.90;;;;;;4980970;28;20231;-82
2022/01/24 13:25:37;;;;;;;46.37;28.43;;;4.80;99.90;;;;;;5004676;28;20315;-83
2022/01/24 13:28:07;;;;;;;49.77;28.93;;;4.80;99.90;;;;;;4998442;28;20612;-82
2022/01/24 13:30:36;;;;;;;49.50;28.63;;;4.80;99.90;;;;;;5005305;28;20233;-84
2022/01/24 13:33:05;;;;;;;50.90;29.73;;;4.80;99.90;;;;;;5004290;28;20233;-81
2022/01/24 13:35:34;;;;;;;49.73;28.87;;;4.80;99.90;;;;;;5001104;28;20234;-80
2022/01/24 13:38:03;;;;;;;48.33;28.60;;;4.80;99.90;;;;;;5007627;28;20312;-82
2022/01/24 13:40:42;;;;;;;41.37;25.37;;;4.80;99.90;;;;;;5005695;28;20245;-81
2022/01/24 13:43:11;;;;;;;42.47;25.63;;;4.80;99.90;;;;;;5007435;28;20220;-81
2022/01/24 13:45:40;;;;;;;39.07;24.73;;;4.80;99.90;;;;;;5001636;28;20276;-81
2022/01/24 13:48:17;;;;;;;38.43;24.53;;;4.70;99.90;;;;;;5003926;28;20236;-81
2022/01/24 13:50:50;;;;;;;39.67;23.60;;;4.80;99.90;;;;;;5002134;28;20870;-80
2022/01/24 13:53:33;;;;;;;35.90;22.97;;;4.70;99.90;;;;;;5001502;28;20750;-81
2022/01/24 13:56:00;;;;;;;35.77;22.47;;;4.70;99.90;;;;;;5001084;28;20240;-81
2022/01/24 13:58:29;;;;;;;36.30;22.23;;;4.70;99.90;;;;;;5002466;28;20276;-81
2022/01/24 14:01:00;;;;;;;32.13;21.40;;;4.70;99.90;;;;;;5005020;28;20230;-81
2022/01/24 14:03:27;;;;;;;35.93;21.80;;;4.70;99.90;;;;;;4993600;28;20239;-82